createdAt,value
2022-08-22T00:01:40.035Z,16.97
2022-08-22T00:03:06.692Z,17.48
2022-08-22T00:04:15.771Z,16.94
2022-08-22T00:06:49.299Z,16.83
2022-08-22T00:09:29.423Z,16.91
2022-08-22T00:12:05.747Z,16.82
2022-08-22T00:14:41.072Z,16.83
2022-08-22T00:17:23.854Z,16.74
2022-08-22T00:19:57.418Z,16.68
2022-08-22T00:22:31.512Z,16.67
2022-08-22T00:25:25.431Z,16.65
2022-08-22T00:27:59.267Z,16.67
2022-08-22T00:30:30.252Z,16.64
2022-08-22T00:33:04.951Z,16.65
2022-08-22T00:35:40.547Z,16.63
2022-08-22T00:38:17.881Z,16.61
2022-08-22T00:40:57.108Z,16.60
2022-08-22T00:43:54.720Z,16.63
2022-08-22T00:46:36.717Z,16.56
2022-08-22T00:49:16.884Z,16.51
2022-08-22T00:52:08.537Z,16.50
2022-08-22T00:54:52.483Z,16.50
2022-08-22T00:57:32.900Z,16.47
2022-08-22T01:00:25.253Z,16.38
2022-08-22T01:03:36.076Z,16.35
2022-08-22T01:06:18.493Z,16.34
2022-08-22T01:08:58.207Z,16.35
2022-08-22T01:11:54.558Z,16.24
2022-08-22T01:14:37.899Z,16.20
2022-08-22T01:17:33.737Z,16.19
2022-08-22T01:20:24.258Z,16.17
2022-08-22T01:23:28.360Z,16.14
2022-08-22T01:26:29.818Z,16.14
2022-08-22T01:29:32.006Z,16.02
2022-08-22T01:32:37.119Z,15.90
2022-08-22T01:35:23.264Z,15.74
2022-08-22T01:38:10.136Z,15.81
2022-08-22T01:41:07.265Z,15.74
2022-08-22T01:44:01.150Z,15.80
2022-08-22T01:46:44.822Z,15.76
2022-08-22T01:49:18.678Z,15.80
2022-08-22T01:51:52.668Z,15.80
2022-08-22T01:54:39.335Z,15.80
2022-08-22T01:57:09.655Z,15.74
2022-08-22T01:59:42.669Z,15.73
2022-08-22T02:02:37.334Z,15.70
2022-08-22T02:05:11.047Z,15.66
2022-08-22T02:07:48.893Z,15.57
2022-08-22T02:10:23.010Z,15.49
2022-08-22T02:12:59.607Z,15.54
2022-08-22T02:15:36.979Z,15.45
2022-08-22T02:18:15.485Z,15.45
2022-08-22T02:20:58.482Z,15.45
2022-08-22T02:23:31.752Z,15.39
2022-08-22T02:26:07.353Z,15.34
2022-08-22T02:28:57.275Z,15.14
2022-08-22T02:31:37.468Z,15.33
2022-08-22T02:34:21.822Z,15.31
2022-08-22T02:36:58.062Z,15.23
2022-08-22T02:39:35.056Z,15.16
2022-08-22T02:42:15.909Z,15.16
2022-08-22T02:44:52.856Z,15.12
2022-08-22T02:47:30.648Z,15.05
2022-08-22T02:50:07.191Z,14.94
2022-08-22T02:52:54.842Z,15.07
2022-08-22T02:55:34.626Z,15.06
2022-08-22T02:58:07.462Z,15.06
2022-08-22T03:00:46.114Z,15.00
2022-08-22T03:03:22.696Z,14.89
2022-08-22T03:06:01.334Z,14.91
2022-08-22T03:08:32.148Z,14.87
2022-08-22T03:11:10.670Z,14.91
2022-08-22T03:13:49.534Z,14.99
2022-08-22T03:16:25.484Z,14.91
2022-08-22T03:18:58.378Z,14.87
2022-08-22T03:21:34.287Z,14.88
2022-08-22T03:24:08.562Z,14.92
2022-08-22T03:26:46.060Z,14.99
2022-08-22T03:29:19.979Z,14.93
2022-08-22T03:32:14.112Z,14.91
2022-08-22T03:34:57.549Z,14.92
2022-08-22T03:37:34.534Z,14.82
2022-08-22T03:40:06.073Z,14.82
2022-08-22T03:43:00.266Z,14.83
2022-08-22T03:45:59.138Z,14.80
2022-08-22T03:48:47.423Z,14.80
2022-08-22T03:51:33.736Z,14.79
2022-08-22T03:54:17.908Z,14.75
2022-08-22T03:57:37.237Z,14.79
2022-08-22T04:00:38.045Z,14.79
2022-08-22T04:03:36.337Z,14.69
2022-08-22T04:06:42.089Z,14.83
2022-08-22T04:09:46.420Z,14.81
2022-08-22T04:12:25.888Z,14.85
2022-08-22T04:15:20.482Z,14.77
2022-08-22T04:18:03.510Z,14.78
2022-08-22T04:21:01.154Z,14.79
2022-08-22T04:23:48.396Z,14.81
2022-08-22T04:26:20.053Z,14.81
2022-08-22T04:28:50.412Z,14.76
2022-08-22T04:31:24.859Z,14.76
2022-08-22T04:34:01.951Z,14.73
2022-08-22T04:36:35.775Z,14.71
2022-08-22T04:39:07.891Z,14.64
2022-08-22T04:41:43.509Z,14.55
2022-08-22T04:44:14.985Z,14.55
2022-08-22T04:46:48.435Z,14.65
2022-08-22T04:49:24.555Z,14.60
2022-08-22T04:51:59.193Z,14.62
2022-08-22T04:54:38.022Z,14.65
2022-08-22T04:57:17.999Z,14.66
2022-08-22T04:59:46.941Z,14.70
2022-08-22T05:02:23.277Z,14.74
2022-08-22T05:04:59.518Z,14.73
2022-08-22T05:07:36.024Z,14.59
2022-08-22T05:10:11.994Z,14.52
2022-08-22T05:12:49.497Z,14.54
2022-08-22T05:15:23.188Z,14.52
2022-08-22T05:17:53.828Z,14.61
2022-08-22T05:20:25.607Z,14.67
2022-08-22T05:22:57.948Z,14.71
2022-08-22T05:25:29.352Z,14.81
2022-08-22T05:28:08.287Z,14.92
2022-08-22T05:30:37.221Z,14.95
2022-08-22T05:33:14.361Z,15.04
2022-08-22T05:35:50.791Z,15.09
2022-08-22T05:38:25.093Z,15.03
2022-08-22T05:40:57.364Z,15.12
2022-08-22T05:43:26.966Z,15.09
2022-08-22T05:45:58.053Z,15.05
2022-08-22T05:48:31.583Z,15.01
2022-08-22T05:51:09.118Z,15.11
2022-08-22T05:53:40.836Z,15.13
2022-08-22T05:56:15.165Z,15.21
2022-08-22T05:58:53.276Z,15.19
2022-08-22T06:01:26.350Z,15.27
2022-08-22T06:04:01.033Z,15.35
2022-08-22T06:06:33.679Z,15.31
2022-08-22T06:09:04.732Z,15.32
2022-08-22T06:11:39.505Z,15.39
2022-08-22T06:14:16.310Z,15.46
2022-08-22T06:16:51.665Z,15.53
2022-08-22T06:19:22.067Z,15.67
2022-08-22T06:21:53.376Z,15.52
2022-08-22T06:24:25.709Z,15.64
2022-08-22T06:26:58.346Z,15.73
2022-08-22T06:29:34.595Z,15.89
2022-08-22T06:32:11.791Z,15.97
2022-08-22T06:34:42.941Z,15.98
2022-08-22T06:37:18.096Z,16.12
2022-08-22T06:39:49.971Z,16.19
2022-08-22T06:42:22.674Z,16.28
2022-08-22T06:44:54.656Z,16.37
2022-08-22T06:47:27.406Z,16.38
2022-08-22T06:50:04.947Z,16.48
2022-08-22T06:52:39.651Z,16.56
2022-08-22T06:55:10.446Z,16.67
2022-08-22T06:57:45.079Z,16.79
2022-08-22T07:00:16.898Z,16.88
2022-08-22T07:02:48.256Z,17.00
2022-08-22T07:05:20.044Z,17.16
2022-08-22T07:07:50.551Z,17.30
2022-08-22T07:10:20.019Z,17.33
2022-08-22T07:12:51.394Z,17.47
2022-08-22T07:15:24.251Z,17.58
2022-08-22T07:17:59.165Z,17.72
2022-08-22T07:20:29.621Z,17.94
2022-08-22T07:23:02.015Z,18.17
2022-08-22T07:25:31.689Z,18.46
2022-08-22T07:28:21.558Z,18.82
2022-08-22T07:31:12.179Z,19.12
2022-08-22T07:33:45.127Z,19.46
2022-08-22T07:36:36.962Z,19.67
2022-08-22T07:39:26.256Z,19.88
2022-08-22T07:42:10.004Z,20.17
2022-08-22T07:44:50.875Z,20.33
2022-08-22T07:47:26.367Z,20.51
2022-08-22T07:49:59.268Z,20.66
2022-08-22T07:52:33.734Z,20.83
2022-08-22T07:55:13.042Z,21.03
2022-08-22T07:57:45.034Z,21.19
2022-08-22T08:00:17.554Z,21.08
2022-08-22T08:02:47.996Z,21.32
2022-08-22T08:05:17.467Z,21.47
2022-08-22T08:07:47.918Z,21.71
2022-08-22T08:10:20.508Z,21.96
2022-08-22T08:13:02.163Z,22.20
2022-08-22T08:15:34.306Z,22.40
2022-08-22T08:18:12.981Z,22.50
2022-08-22T08:20:41.951Z,22.69
2022-08-22T08:23:11.943Z,22.91
2022-08-22T08:25:54.948Z,23.17
2022-08-22T08:28:34.935Z,23.24
2022-08-22T08:31:08.867Z,23.52
2022-08-22T08:33:41.127Z,23.63
2022-08-22T08:36:20.024Z,23.51
2022-08-22T08:38:52.931Z,23.66
2022-08-22T08:41:52.002Z,23.59
2022-08-22T08:44:37.218Z,23.85
2022-08-22T08:47:24.456Z,23.96
2022-08-22T08:50:16.074Z,23.99
2022-08-22T08:53:11.617Z,24.22
2022-08-22T08:55:47.480Z,24.28
2022-08-22T08:58:30.141Z,24.21
2022-08-22T09:01:07.205Z,24.39
2022-08-22T09:03:59.856Z,24.51
2022-08-22T09:06:52.841Z,24.58
2022-08-22T09:09:41.087Z,24.60
2022-08-22T09:12:34.670Z,24.68
2022-08-22T09:15:42.413Z,24.77
2022-08-22T09:18:49.763Z,24.74
2022-08-22T09:21:30.723Z,24.85
2022-08-22T09:24:32.968Z,24.97
2022-08-22T09:27:03.966Z,24.90
2022-08-22T09:32:44.478Z,25.17
2022-08-22T09:35:23.553Z,25.21
2022-08-22T09:38:03.561Z,25.39
2022-08-22T09:40:39.098Z,25.64
2022-08-22T09:43:12.300Z,25.82
2022-08-22T09:45:47.923Z,25.76
2022-08-22T09:48:34.546Z,25.92
2022-08-22T09:51:31.691Z,26.15
2022-08-22T09:54:31.023Z,26.23
2022-08-22T09:57:07.703Z,26.28
2022-08-22T10:00:02.061Z,26.43
2022-08-22T10:02:36.362Z,26.55
2022-08-22T10:05:13.639Z,26.70
2022-08-22T10:08:29.212Z,26.89
2022-08-22T10:11:11.283Z,27.06
2022-08-22T10:13:57.400Z,27.13
2022-08-22T10:17:00.225Z,26.95
2022-08-22T10:19:33.779Z,27.16
2022-08-22T10:22:20.988Z,27.36
2022-08-22T10:25:07.461Z,27.32
2022-08-22T10:27:48.784Z,27.40
2022-08-22T10:30:20.212Z,27.34
2022-08-22T10:32:53.789Z,27.20
2022-08-22T10:35:27.995Z,27.23
2022-08-22T10:38:10.590Z,26.96
2022-08-22T10:40:44.997Z,27.21
2022-08-22T10:43:21.064Z,27.57
2022-08-22T10:46:04.599Z,27.59
2022-08-22T10:48:44.128Z,27.63
2022-08-22T10:51:19.484Z,27.95
2022-08-22T10:54:14.649Z,28.18
2022-08-22T10:56:55.746Z,28.46
2022-08-22T10:59:34.597Z,28.39
2022-08-22T11:02:18.141Z,28.45
2022-08-22T11:05:13.999Z,28.53
2022-08-22T11:07:48.654Z,28.65
2022-08-22T11:10:25.125Z,28.35
2022-08-22T11:13:12.661Z,28.56
2022-08-22T11:15:58.173Z,28.44
2022-08-22T11:18:37.157Z,28.07
2022-08-22T11:21:09.368Z,28.33
2022-08-22T11:23:43.114Z,28.49
2022-08-22T11:26:35.792Z,28.56
2022-08-22T11:29:35.495Z,28.41
2022-08-22T11:32:13.405Z,28.71
2022-08-22T11:34:50.962Z,28.41
2022-08-22T11:37:42.593Z,28.64
2022-08-22T11:40:37.624Z,28.70
2022-08-22T11:43:18.132Z,28.89
2022-08-22T11:45:50.766Z,28.92
2022-08-22T11:48:24.439Z,28.72
2022-08-22T11:50:57.933Z,28.41
2022-08-22T11:53:34.076Z,28.49
2022-08-22T11:56:13.785Z,28.55
2022-08-22T11:58:50.227Z,28.52
2022-08-22T12:01:23.996Z,28.70
2022-08-22T12:04:00.603Z,28.64
2022-08-22T12:06:57.942Z,28.58
2022-08-22T12:09:40.903Z,28.29
2022-08-22T12:12:25.825Z,27.98
2022-08-22T12:14:59.305Z,27.93
2022-08-22T12:18:11.726Z,28.25
2022-08-22T12:21:11.284Z,28.50
2022-08-22T12:24:21.008Z,28.27
2022-08-22T12:27:00.234Z,28.48
2022-08-22T12:29:44.671Z,28.30
2022-08-22T12:32:34.762Z,28.59
2022-08-22T12:35:19.299Z,28.67
2022-08-22T12:37:53.445Z,28.88
2022-08-22T12:40:29.645Z,28.99
2022-08-22T12:43:29.779Z,28.90
2022-08-22T12:46:15.730Z,29.00
2022-08-22T12:49:12.395Z,29.10
2022-08-22T12:51:56.427Z,29.04
2022-08-22T12:54:52.302Z,29.04
2022-08-22T12:57:31.269Z,29.18
2022-08-22T13:00:18.113Z,29.28
2022-08-22T13:02:53.459Z,29.20
2022-08-22T13:05:25.089Z,29.27
2022-08-22T13:07:57.192Z,29.31
2022-08-22T13:10:38.297Z,28.90
2022-08-22T13:13:12.125Z,28.86
2022-08-22T13:15:45.221Z,28.97
2022-08-22T13:18:29.384Z,29.06
2022-08-22T13:21:01.852Z,29.00
2022-08-22T13:23:39.981Z,28.99
2022-08-22T13:26:33.718Z,29.09
2022-08-22T13:29:26.473Z,29.23
2022-08-22T13:32:00.304Z,29.21
2022-08-22T13:34:39.980Z,29.10
2022-08-22T13:37:15.468Z,29.16
2022-08-22T13:39:47.120Z,29.18
2022-08-22T13:42:29.926Z,29.09
2022-08-22T13:45:03.117Z,29.04
2022-08-22T13:47:39.598Z,29.14
2022-08-22T13:50:13.959Z,29.13
2022-08-22T13:52:52.498Z,29.17
2022-08-22T13:55:29.492Z,29.06
2022-08-22T13:58:07.758Z,28.94
2022-08-22T14:01:10.970Z,29.01
2022-08-22T14:03:45.419Z,28.95
2022-08-22T14:06:41.411Z,29.01
2022-08-22T14:09:31.319Z,29.04
2022-08-22T14:12:11.992Z,28.86
2022-08-22T14:14:45.859Z,28.67
2022-08-22T14:17:17.433Z,28.76
2022-08-22T14:19:52.939Z,28.72
2022-08-22T14:22:34.815Z,28.66
2022-08-22T14:25:07.511Z,28.69
2022-08-22T14:27:39.742Z,28.64
2022-08-22T14:30:18.911Z,28.57
2022-08-22T14:32:51.119Z,28.59
2022-08-22T14:35:35.175Z,28.63
2022-08-22T14:38:18.242Z,28.42
2022-08-22T14:40:48.655Z,28.54
2022-08-22T14:43:22.448Z,28.53
2022-08-22T14:46:02.223Z,28.40
2022-08-22T14:48:40.551Z,28.35
2022-08-22T14:51:11.853Z,28.25
2022-08-22T14:53:41.475Z,28.23
2022-08-22T14:56:12.672Z,28.11
2022-08-22T14:58:50.650Z,27.84
2022-08-22T15:01:25.045Z,27.95
2022-08-22T15:03:56.331Z,27.95
2022-08-22T15:06:35.141Z,27.94
2022-08-22T15:09:08.333Z,27.92
2022-08-22T15:11:37.839Z,27.95
2022-08-22T15:14:16.002Z,27.93
2022-08-22T15:16:52.950Z,27.90
2022-08-22T15:19:27.235Z,27.87
2022-08-22T15:22:09.977Z,27.78
2022-08-22T15:24:46.467Z,27.79
2022-08-22T15:27:18.830Z,27.73
2022-08-22T15:29:53.061Z,27.60
2022-08-22T15:32:26.718Z,27.47
2022-08-22T15:35:04.910Z,27.40
2022-08-22T15:37:35.500Z,27.32
2022-08-22T15:40:12.648Z,27.12
2022-08-22T15:42:44.010Z,27.04
2022-08-22T15:45:22.722Z,27.08
2022-08-22T15:47:54.653Z,27.06
2022-08-22T15:50:32.250Z,27.00
2022-08-22T15:53:18.012Z,26.95
2022-08-22T15:56:29.004Z,26.99
2022-08-22T15:59:24.410Z,26.94
2022-08-22T16:01:58.794Z,26.83
2022-08-22T16:04:40.468Z,26.82
2022-08-22T16:07:26.885Z,26.81
2022-08-22T16:09:58.009Z,26.78
2022-08-22T16:12:32.829Z,26.80
2022-08-22T16:15:05.234Z,26.79
2022-08-22T16:17:44.246Z,26.68
2022-08-22T16:20:54.010Z,26.71
2022-08-22T16:23:22.973Z,26.68
2022-08-22T16:26:12.885Z,26.67
2022-08-22T16:28:59.004Z,26.62
2022-08-22T16:31:30.868Z,26.61
2022-08-22T16:34:20.387Z,26.59
2022-08-22T16:36:53.893Z,26.45
2022-08-22T16:39:35.585Z,26.49
2022-08-22T16:42:26.666Z,26.42
2022-08-22T16:45:11.163Z,26.45
2022-08-22T16:47:43.065Z,26.39
2022-08-22T16:50:28.576Z,26.39
2022-08-22T16:53:03.180Z,26.34
2022-08-22T16:55:56.431Z,26.30
2022-08-22T16:59:09.848Z,26.34
2022-08-22T17:02:03.018Z,26.25
2022-08-22T17:04:40.365Z,26.26
2022-08-22T17:07:18.808Z,26.23
2022-08-22T17:10:12.631Z,26.25
2022-08-22T17:12:54.117Z,26.25
2022-08-22T17:15:32.727Z,26.18
2022-08-22T17:18:15.978Z,26.14
2022-08-22T17:20:48.564Z,26.10
2022-08-22T17:23:26.722Z,26.04
2022-08-22T17:26:01.797Z,25.98
2022-08-22T17:28:37.100Z,25.90
2022-08-22T17:31:12.076Z,25.86
2022-08-22T17:34:07.159Z,25.83
2022-08-22T17:36:54.069Z,25.80
2022-08-22T17:39:33.668Z,25.73
2022-08-22T17:42:29.396Z,25.71
2022-08-22T17:45:07.302Z,25.55
2022-08-22T17:47:46.669Z,25.63
2022-08-22T17:50:22.907Z,25.58
2022-08-22T17:52:57.784Z,25.54
2022-08-22T17:55:31.847Z,25.53
2022-08-22T17:58:37.682Z,25.45
2022-08-22T18:01:13.719Z,25.34
2022-08-22T18:03:47.711Z,25.23
2022-08-22T18:06:23.246Z,25.15
2022-08-22T18:11:49.576Z,24.96
2022-08-22T18:14:33.871Z,24.86
2022-08-22T18:17:15.031Z,24.75
2022-08-22T18:19:53.135Z,24.73
2022-08-22T18:22:25.970Z,24.58
2022-08-22T18:24:58.901Z,24.53
2022-08-22T18:27:35.396Z,24.46
2022-08-22T18:30:16.474Z,24.35
2022-08-22T18:32:50.980Z,24.28
2022-08-22T18:35:23.850Z,24.19
2022-08-22T18:37:59.212Z,24.06
2022-08-22T18:40:33.005Z,24.01
2022-08-22T18:43:13.986Z,24.01
2022-08-22T18:46:04.150Z,23.90
2022-08-22T18:48:54.239Z,23.83
2022-08-22T18:51:30.437Z,23.75
2022-08-22T18:54:17.837Z,23.73
2022-08-22T18:56:51.666Z,23.68
2022-08-22T18:59:42.546Z,23.62
2022-08-22T19:02:28.251Z,23.45
2022-08-22T19:05:40.967Z,23.42
2022-08-22T19:08:31.354Z,23.36
2022-08-22T19:11:15.608Z,23.25
2022-08-22T19:13:53.211Z,23.09
2022-08-22T19:16:45.313Z,23.01
2022-08-22T19:19:18.638Z,22.96
2022-08-22T19:22:21.744Z,22.90
2022-08-22T19:25:26.195Z,22.91
2022-08-22T19:28:26.691Z,22.90
2022-08-22T19:31:22.392Z,22.85
2022-08-22T19:33:52.353Z,22.80
2022-08-22T19:36:34.456Z,22.62
2022-08-22T19:39:09.012Z,22.55
2022-08-22T19:41:40.591Z,22.45
2022-08-22T19:44:22.157Z,22.37
2022-08-22T19:47:14.852Z,22.35
2022-08-22T19:50:05.722Z,22.32
2022-08-22T19:52:48.180Z,22.32
2022-08-22T19:55:22.691Z,22.35
2022-08-22T19:57:58.598Z,22.33
2022-08-22T20:00:47.545Z,22.27
2022-08-22T20:03:31.031Z,22.18
2022-08-22T20:06:05.920Z,22.12
2022-08-22T20:08:48.457Z,22.18
2022-08-22T20:11:27.244Z,22.06
2022-08-22T20:14:12.057Z,22.08
2022-08-22T20:17:04.322Z,22.04
2022-08-22T20:20:16.558Z,21.97
2022-08-22T20:22:38.691Z,21.95
2022-08-22T20:25:16.270Z,21.95
2022-08-22T20:28:05.357Z,21.83
2022-08-22T20:30:40.375Z,21.79
2022-08-22T20:33:13.874Z,21.77
2022-08-22T20:35:45.223Z,21.67
2022-08-22T20:38:17.610Z,21.63
2022-08-22T20:40:55.543Z,21.62
2022-08-22T20:43:29.907Z,21.62
2022-08-22T20:46:05.520Z,21.54
2022-08-22T20:48:39.256Z,21.46
2022-08-22T20:51:10.139Z,21.37
2022-08-22T20:53:38.940Z,21.35
2022-08-22T20:56:10.532Z,21.32
2022-08-22T20:58:46.949Z,21.26
2022-08-22T21:01:16.403Z,21.19
2022-08-22T21:03:46.721Z,21.17
2022-08-22T21:06:17.674Z,21.00
2022-08-22T21:09:07.935Z,20.89
2022-08-22T21:11:40.207Z,20.92
2022-08-22T21:14:23.088Z,20.83
2022-08-22T21:16:53.656Z,20.79
2022-08-22T21:19:26.414Z,20.72
2022-08-22T21:21:56.393Z,20.67
2022-08-22T21:24:25.192Z,20.68
2022-08-22T21:26:57.941Z,20.56
2022-08-22T21:29:33.960Z,20.56
2022-08-22T21:32:12.492Z,20.51
2022-08-22T21:34:45.009Z,20.51
2022-08-22T21:37:16.536Z,20.46
2022-08-22T21:39:47.479Z,20.45
2022-08-22T21:42:24.797Z,20.45
2022-08-22T21:44:57.950Z,20.41
2022-08-22T21:47:31.606Z,20.36
2022-08-22T21:50:04.577Z,20.42
2022-08-22T21:52:34.865Z,20.39
2022-08-22T21:55:25.438Z,20.34
2022-08-22T21:58:13.120Z,20.27
2022-08-22T22:01:03.975Z,20.28
2022-08-22T22:03:37.867Z,20.29
2022-08-22T22:06:07.485Z,20.27
2022-08-22T22:08:36.296Z,20.21
2022-08-22T22:11:09.022Z,20.14
2022-08-22T22:13:41.167Z,20.11
2022-08-22T22:16:12.044Z,20.10
2022-08-22T22:18:41.550Z,20.01
2022-08-22T22:21:10.380Z,19.91
2022-08-22T22:23:39.369Z,19.90
2022-08-22T22:26:08.072Z,19.86
2022-08-22T22:28:41.469Z,19.80
2022-08-22T22:31:10.824Z,19.74
2022-08-22T22:33:41.139Z,19.68
2022-08-22T22:36:12.691Z,19.72
2022-08-22T22:38:42.214Z,19.72
2022-08-22T22:41:11.314Z,19.68
2022-08-22T22:43:41.608Z,19.60
2022-08-22T22:46:10.366Z,19.54
2022-08-22T22:48:39.082Z,19.55
2022-08-22T22:51:09.498Z,19.54
2022-08-22T22:53:40.347Z,19.46
2022-08-22T22:56:15.771Z,19.39
2022-08-22T22:58:47.503Z,19.41
2022-08-22T23:01:18.678Z,19.36
2022-08-22T23:03:48.305Z,19.34
2022-08-22T23:06:19.462Z,19.34
2022-08-22T23:08:49.349Z,19.31
2022-08-22T23:11:19.937Z,19.35
2022-08-22T23:13:50.594Z,19.30
2022-08-22T23:16:21.584Z,19.23
2022-08-22T23:18:50.747Z,19.18
2022-08-22T23:21:22.217Z,19.13
2022-08-22T23:23:52.247Z,19.00
2022-08-22T23:26:21.029Z,19.04
2022-08-22T23:28:51.266Z,19.12
2022-08-22T23:31:29.138Z,18.99
2022-08-22T23:34:01.166Z,19.00
2022-08-22T23:36:30.572Z,18.90
2022-08-22T23:38:59.373Z,18.91
2022-08-22T23:41:28.226Z,18.84
2022-08-22T23:43:58.414Z,18.81
2022-08-22T23:46:31.252Z,18.71
2022-08-22T23:49:00.584Z,18.77
2022-08-22T23:51:29.776Z,18.64
2022-08-22T23:53:59.678Z,18.54
2022-08-22T23:56:30.493Z,18.50
2022-08-22T23:59:01.614Z,18.54
